Betim, Brazil
Current Conditions -  °F | °C
As of 4:00 PM on Friday 24 Oct 2014 (Local Time) from SBBH Reporting Station
Scattered Clouds Scattered Clouds  
Wind Chill: 88°   Ceiling: Unl
Heat Index: 88°   Visibility: 6mi
Dew Point: 50°   Wind: 5mph
Humidity: 27%   Direction: 210°SSW
Pressure: 29.97"   Gusts: NA
Location:  19.97°S, 44.19°W
Report Text: SBBH 241800Z 21004KT 9999 SCT030 31/10 Q1015
Loading
Personal Weather Stations






























Interactive Weather Map
Tropical Storm Tracking
New forecast layout! Learn more

10-Day Weather Forecast

Advertisements
Track Severe Weather on mobile